sensor_id;sensor_type;location;lat;lon;timestamp;pressure;altitude;pressure_sealevel;temperature;humidity
36254;BME280;22291;52.250;21.228;2023-04-19T06:15:48;100394.48;;;8.78;91.15
36254;BME280;22291;52.250;21.228;2023-04-19T06:18:16;100389.08;;;8.78;90.09
36254;BME280;22291;52.250;21.228;2023-04-19T06:20:43;100389.37;;;8.76;90.00
36254;BME280;22291;52.250;21.228;2023-04-19T06:23:09;100384.75;;;8.79;90.13
36254;BME280;22291;52.250;21.228;2023-04-19T06:25:38;100382.76;;;8.85;90.54
36254;BME280;22291;52.250;21.228;2023-04-19T06:28:06;100379.95;;;8.93;91.16
36254;BME280;22291;52.250;21.228;2023-04-19T06:30:32;100382.97;;;9.05;91.61
36254;BME280;22291;52.250;21.228;2023-04-19T06:33:02;100380.36;;;9.16;91.11
36254;BME280;22291;52.250;21.228;2023-04-19T06:35:28;100379.97;;;9.23;90.92
36254;BME280;22291;52.250;21.228;2023-04-19T06:37:55;100372.55;;;9.31;90.90
36254;BME280;22291;52.250;21.228;2023-04-19T06:40:23;100374.49;;;9.42;90.90
36254;BME280;22291;52.250;21.228;2023-04-19T06:42:53;100376.54;;;9.48;90.08
36254;BME280;22291;52.250;21.228;2023-04-19T06:45:21;100378.94;;;9.49;89.85
36254;BME280;22291;52.250;21.228;2023-04-19T06:47:50;100371.33;;;9.51;89.30
36254;BME280;22291;52.250;21.228;2023-04-19T06:50:16;100371.33;;;9.51;89.28
36254;BME280;22291;52.250;21.228;2023-04-19T06:52:45;100380.69;;;9.57;89.34
36254;BME280;22291;52.250;21.228;2023-04-19T06:55:15;100380.75;;;9.54;88.70
36254;BME280;22291;52.250;21.228;2023-04-19T06:57:42;100380.48;;;9.53;88.90
36254;BME280;22291;52.250;21.228;2023-04-19T07:00:12;100388.39;;;9.49;88.07
36254;BME280;22291;52.250;21.228;2023-04-19T07:02:42;100385.78;;;9.44;87.69
36254;BME280;22291;52.250;21.228;2023-04-19T07:05:10;100391.25;;;9.42;87.67
36254;BME280;22291;52.250;21.228;2023-04-19T07:07:39;100391.28;;;9.39;88.13
36254;BME280;22291;52.250;21.228;2023-04-19T07:10:08;100391.05;;;9.38;88.01
36254;BME280;22291;52.250;21.228;2023-04-19T07:12:36;100385.68;;;9.35;87.55
36254;BME280;22291;52.250;21.228;2023-04-19T07:15:05;100387.39;;;9.31;87.17
36254;BME280;22291;52.250;21.228;2023-04-19T07:17:36;100389.33;;;9.28;87.39
36254;BME280;22291;52.250;21.228;2023-04-19T07:20:05;100387.06;;;9.33;87.61
36254;BME280;22291;52.250;21.228;2023-04-19T07:22:35;100394.57;;;9.36;88.15
36254;BME280;22291;52.250;21.228;2023-04-19T07:25:04;100393.22;;;9.36;87.46
36254;BME280;22291;52.250;21.228;2023-04-19T07:27:33;100388.88;;;9.38;87.62
36254;BME280;22291;52.250;21.228;2023-04-19T07:30:02;100391.25;;;9.42;87.37
36254;BME280;22291;52.250;21.228;2023-04-19T07:32:30;100392.34;;;9.41;87.17
36254;BME280;22291;52.250;21.228;2023-04-19T07:34:58;100395.89;;;9.39;86.81
36254;BME280;22291;52.250;21.228;2023-04-19T07:37:24;100399.34;;;9.42;86.95
36254;BME280;22291;52.250;21.228;2023-04-19T07:39:52;100396.84;;;9.45;87.41
36254;BME280;22291;52.250;21.228;2023-04-19T07:42:20;100398.14;;;9.48;86.75
36254;BME280;22291;52.250;21.228;2023-04-19T07:44:47;100393.23;;;9.50;86.80
36254;BME280;22291;52.250;21.228;2023-04-19T07:47:15;100392.84;;;9.57;87.52
36254;BME280;22291;52.250;21.228;2023-04-19T07:49:45;100393.20;;;9.66;87.76
36254;BME280;22291;52.250;21.228;2023-04-19T07:52:13;100394.11;;;9.76;87.19
36254;BME280;22291;52.250;21.228;2023-04-19T07:54:39;100384.98;;;9.85;87.75
36254;BME280;22291;52.250;21.228;2023-04-19T07:57:07;100386.28;;;10.02;88.25
36254;BME280;22291;52.250;21.228;2023-04-19T07:59:34;100385.46;;;10.15;87.05
36254;BME280;22291;52.250;21.228;2023-04-19T08:02:00;100382.46;;;10.28;87.09
36254;BME280;22291;52.250;21.228;2023-04-19T08:04:28;100383.68;;;10.47;87.30
36254;BME280;22291;52.250;21.228;2023-04-19T08:06:54;100382.05;;;10.60;85.98
36254;BME280;22291;52.250;21.228;2023-04-19T08:09:20;100382.36;;;10.70;85.44
36254;BME280;22291;52.250;21.228;2023-04-19T08:11:46;100390.90;;;10.86;85.76
36254;BME280;22291;52.250;21.228;2023-04-19T08:14:13;100383.22;;;10.90;83.50
36254;BME280;22291;52.250;21.228;2023-04-19T08:16:40;100388.06;;;10.91;82.94
36254;BME280;22291;52.250;21.228;2023-04-19T08:19:07;100375.09;;;10.90;83.01
36254;BME280;22291;52.250;21.228;2023-04-19T08:21:33;100379.52;;;10.97;83.20
36254;BME280;22291;52.250;21.228;2023-04-19T08:23:59;100382.09;;;11.02;82.65
36254;BME280;22291;52.250;21.228;2023-04-19T08:26:27;100387.63;;;11.09;82.36
36254;BME280;22291;52.250;21.228;2023-04-19T08:28:54;100386.45;;;11.12;81.93
36254;BME280;22291;52.250;21.228;2023-04-19T08:31:20;100386.45;;;11.12;81.60
36254;BME280;22291;52.250;21.228;2023-04-19T08:33:48;100387.19;;;11.15;81.10
36254;BME280;22291;52.250;21.228;2023-04-19T08:36:14;100386.02;;;11.19;80.95
36254;BME280;22291;52.250;21.228;2023-04-19T08:38:44;100389.37;;;11.25;80.83
36254;BME280;22291;52.250;21.228;2023-04-19T08:41:11;100395.28;;;11.27;80.14
36254;BME280;22291;52.250;21.228;2023-04-19T08:43:40;100398.80;;;11.27;79.97
36254;BME280;22291;52.250;21.228;2023-04-19T08:46:10;100400.16;;;11.27;79.82
36254;BME280;22291;52.250;21.228;2023-04-19T08:48:39;100392.69;;;11.33;80.02
36254;BME280;22291;52.250;21.228;2023-04-19T08:51:10;100393.48;;;11.33;79.95
36254;BME280;22291;52.250;21.228;2023-04-19T08:53:39;100395.69;;;11.43;79.75
36254;BME280;22291;52.250;21.228;2023-04-19T08:56:07;100397.95;;;11.49;79.18
36254;BME280;22291;52.250;21.228;2023-04-19T08:58:35;100401.20;;;11.49;79.08
36254;BME280;22291;52.250;21.228;2023-04-19T09:01:06;100401.37;;;11.52;79.00
36254;BME280;22291;52.250;21.228;2023-04-19T09:03:35;100405.12;;;11.54;78.49
36254;BME280;22291;52.250;21.228;2023-04-19T09:06:07;100401.94;;;11.52;77.74
36254;BME280;22291;52.250;21.228;2023-04-19T09:08:33;100407.88;;;11.43;77.33
36254;BME280;22291;52.250;21.228;2023-04-19T09:11:01;100412.12;;;11.35;77.21
36254;BME280;22291;52.250;21.228;2023-04-19T09:13:29;100412.52;;;11.31;77.25
36254;BME280;22291;52.250;21.228;2023-04-19T09:15:57;100405.37;;;11.24;77.03
36254;BME280;22291;52.250;21.228;2023-04-19T09:18:25;100409.56;;;11.18;77.10
36254;BME280;22291;52.250;21.228;2023-04-19T09:20:53;100406.37;;;11.16;77.29
36254;BME280;22291;52.250;21.228;2023-04-19T09:23:24;100401.04;;;11.14;77.42
36254;BME280;22291;52.250;21.228;2023-04-19T09:25:58;100411.91;;;11.11;77.58
36254;BME280;22291;52.250;21.228;2023-04-19T09:28:31;100414.14;;;11.09;77.11
36254;BME280;22291;52.250;21.228;2023-04-19T09:30:59;100416.00;;;11.00;77.04
36254;BME280;22291;52.250;21.228;2023-04-19T09:33:37;100422.64;;;10.94;77.20
36254;BME280;22291;52.250;21.228;2023-04-19T09:36:07;100415.73;;;10.88;76.97
36254;BME280;22291;52.250;21.228;2023-04-19T09:38:48;100425.33;;;10.82;77.01
36254;BME280;22291;52.250;21.228;2023-04-19T09:41:16;100419.25;;;10.77;77.32
36254;BME280;22291;52.250;21.228;2023-04-19T09:43:45;100422.52;;;10.76;77.72
36254;BME280;22291;52.250;21.228;2023-04-19T09:46:31;100419.63;;;10.73;77.25
36254;BME280;22291;52.250;21.228;2023-04-19T09:49:17;100417.95;;;10.63;76.85
36254;BME280;22291;52.250;21.228;2023-04-19T09:51:53;100421.34;;;10.57;76.96
36254;BME280;22291;52.250;21.228;2023-04-19T09:54:24;100427.70;;;10.50;77.10
36254;BME280;22291;52.250;21.228;2023-04-19T09:56:54;100423.41;;;10.49;77.62
36254;BME280;22291;52.250;21.228;2023-04-19T09:59:22;100423.72;;;10.48;77.87
36254;BME280;22291;52.250;21.228;2023-04-19T10:01:54;100423.72;;;10.48;77.90
36254;BME280;22291;52.250;21.228;2023-04-19T10:04:22;100424.50;;;10.48;78.15
36254;BME280;22291;52.250;21.228;2023-04-19T10:06:52;100425.55;;;10.50;78.46
36254;BME280;22291;52.250;21.228;2023-04-19T10:09:22;100422.29;;;10.50;78.34
36254;BME280;22291;52.250;21.228;2023-04-19T10:11:55;100426.91;;;10.50;78.45
36254;BME280;22291;52.250;21.228;2023-04-19T10:14:25;100424.69;;;10.52;78.55
36254;BME280;22291;52.250;21.228;2023-04-19T10:16:55;100419.84;;;10.51;78.38
36254;BME280;22291;52.250;21.228;2023-04-19T10:19:23;100422.25;;;10.53;78.51
36254;BME280;22291;52.250;21.228;2023-04-19T10:21:51;100426.53;;;10.54;78.61
36254;BME280;22291;52.250;21.228;2023-04-19T10:24:19;100420.29;;;10.56;78.83
36254;BME280;22291;52.250;21.228;2023-04-19T10:27:12;100419.87;;;10.62;79.06
36254;BME280;22291;52.250;21.228;2023-04-19T10:30:01;100421.89;;;10.68;79.12
36254;BME280;22291;52.250;21.228;2023-04-19T10:32:39;100420.91;;;10.75;79.25
36254;BME280;22291;52.250;21.228;2023-04-19T10:35:20;100426.95;;;10.83;79.20
36254;BME280;22291;52.250;21.228;2023-04-19T10:38:07;100422.02;;;10.86;78.98
36254;BME280;22291;52.250;21.228;2023-04-19T10:40:56;100426.82;;;10.89;78.62
36254;BME280;22291;52.250;21.228;2023-04-19T10:43:31;100427.08;;;10.90;78.57
36254;BME280;22291;52.250;21.228;2023-04-19T10:46:08;100420.84;;;10.89;78.25
36254;BME280;22291;52.250;21.228;2023-04-19T10:48:58;100419.45;;;10.92;78.21
36254;BME280;22291;52.250;21.228;2023-04-19T10:51:32;100417.53;;;11.03;79.06
36254;BME280;22291;52.250;21.228;2023-04-19T10:57:06;100418.28;;;11.38;79.69
36254;BME280;22291;52.250;21.228;2023-04-19T10:59:37;100422.23;;;11.63;79.90
36254;BME280;22291;52.250;21.228;2023-04-19T11:07:25;100411.97;;;12.29;77.41
36254;BME280;22291;52.250;21.228;2023-04-19T11:09:54;100425.88;;;12.45;77.15
36254;BME280;22291;52.250;21.228;2023-04-19T11:12:22;100421.81;;;12.62;76.16
36254;BME280;22291;52.250;21.228;2023-04-19T11:14:57;100426.19;;;12.78;76.08
36254;BME280;22291;52.250;21.228;2023-04-19T11:17:31;100414.18;;;13.05;75.80
36254;BME280;22291;52.250;21.228;2023-04-19T11:20:06;100413.78;;;13.51;75.60
36254;BME280;22291;52.250;21.228;2023-04-19T11:22:40;100416.44;;;13.83;74.82
36254;BME280;22291;52.250;21.228;2023-04-19T11:25:19;100409.08;;;14.34;73.90
36254;BME280;22291;52.250;21.228;2023-04-19T11:27:53;100406.02;;;15.05;74.50
36254;BME280;22291;52.250;21.228;2023-04-19T11:30:20;100408.97;;;15.83;74.41
36254;BME280;22291;52.250;21.228;2023-04-19T11:32:55;100420.13;;;16.49;72.09
36254;BME280;22291;52.250;21.228;2023-04-19T11:35:26;100421.91;;;16.64;67.68
36254;BME280;22291;52.250;21.228;2023-04-19T11:37:55;100422.41;;;16.88;68.24
36254;BME280;22291;52.250;21.228;2023-04-19T11:40:24;100433.13;;;17.09;66.92
36254;BME280;22291;52.250;21.228;2023-04-19T11:42:59;100420.91;;;17.12;65.52
36254;BME280;22291;52.250;21.228;2023-04-19T11:45:34;100416.44;;;17.20;65.09
36254;BME280;22291;52.250;21.228;2023-04-19T11:48:05;100419.61;;;17.22;63.56
36254;BME280;22291;52.250;21.228;2023-04-19T11:50:39;100422.49;;;16.97;62.28
36254;BME280;22291;52.250;21.228;2023-04-19T11:53:19;100424.22;;;16.90;62.56
36254;BME280;22291;52.250;21.228;2023-04-19T11:55:50;100426.07;;;16.73;61.52
36254;BME280;22291;52.250;21.228;2023-04-19T11:58:44;100426.70;;;16.54;61.50
36254;BME280;22291;52.250;21.228;2023-04-19T12:01:18;100428.55;;;16.44;61.25
36254;BME280;22291;52.250;21.228;2023-04-19T12:03:52;100434.94;;;16.36;61.74
36254;BME280;22291;52.250;21.228;2023-04-19T12:06:29;100441.21;;;16.24;61.24
36254;BME280;22291;52.250;21.228;2023-04-19T12:08:58;100442.39;;;16.11;61.26
36254;BME280;22291;52.250;21.228;2023-04-19T12:11:40;100440.22;;;15.98;61.11
36254;BME280;22291;52.250;21.228;2023-04-19T12:14:15;100436.81;;;15.82;60.96
36254;BME280;22291;52.250;21.228;2023-04-19T12:17:08;100446.19;;;15.54;60.50
36254;BME280;22291;52.250;21.228;2023-04-19T12:19:46;100437.64;;;15.31;61.19
36254;BME280;22291;52.250;21.228;2023-04-19T12:22:17;100443.25;;;15.13;61.34
36254;BME280;22291;52.250;21.228;2023-04-19T12:24:52;100441.52;;;14.97;61.69
36254;BME280;22291;52.250;21.228;2023-04-19T12:27:18;100445.31;;;14.83;61.76
36254;BME280;22291;52.250;21.228;2023-04-19T12:29:45;100437.35;;;14.78;62.34
36254;BME280;22291;52.250;21.228;2023-04-19T12:32:12;100440.70;;;14.69;62.44
36254;BME280;22291;52.250;21.228;2023-04-19T12:34:40;100436.77;;;14.57;62.73
36254;BME280;22291;52.250;21.228;2023-04-19T12:37:09;100438.55;;;14.53;62.45
36254;BME280;22291;52.250;21.228;2023-04-19T12:39:37;100442.36;;;14.46;63.03
36254;BME280;22291;52.250;21.228;2023-04-19T12:42:04;100443.27;;;14.44;62.93
36254;BME280;22291;52.250;21.228;2023-04-19T12:44:31;100441.07;;;14.37;63.51
36254;BME280;22291;52.250;21.228;2023-04-19T12:46:57;100444.05;;;14.45;63.68
36254;BME280;22291;52.250;21.228;2023-04-19T12:49:23;100444.89;;;14.51;64.05
36254;BME280;22291;52.250;21.228;2023-04-19T12:51:49;100446.91;;;14.63;64.15
36254;BME280;22291;52.250;21.228;2023-04-19T12:54:17;100440.48;;;14.74;64.23
36254;BME280;22291;52.250;21.228;2023-04-19T12:56:44;100436.45;;;14.80;63.91
36254;BME280;22291;52.250;21.228;2023-04-19T12:59:10;100435.33;;;14.87;63.75
36254;BME280;22291;52.250;21.228;2023-04-19T13:01:38;100441.15;;;14.92;63.20
36254;BME280;22291;52.250;21.228;2023-04-19T13:04:06;100434.43;;;14.89;63.02
36254;BME280;22291;52.250;21.228;2023-04-19T13:06:34;100439.00;;;14.91;62.73
36254;BME280;22291;52.250;21.228;2023-04-19T13:09:04;100434.14;;;15.03;63.37
36254;BME280;22291;52.250;21.228;2023-04-19T13:11:31;100428.41;;;15.17;63.11
36254;BME280;22291;52.250;21.228;2023-04-19T13:13:58;100430.49;;;15.33;63.27
36254;BME280;22291;52.250;21.228;2023-04-19T13:16:26;100425.27;;;15.46;63.11
36254;BME280;22291;52.250;21.228;2023-04-19T13:18:52;100424.05;;;15.49;62.86
36254;BME280;22291;52.250;21.228;2023-04-19T13:21:21;100428.03;;;15.58;62.70
36254;BME280;22291;52.250;21.228;2023-04-19T13:23:48;100421.55;;;15.69;62.46
36254;BME280;22291;52.250;21.228;2023-04-19T13:26:15;100425.11;;;15.76;61.86
36254;BME280;22291;52.250;21.228;2023-04-19T13:28:42;100423.81;;;15.73;61.79
36254;BME280;22291;52.250;21.228;2023-04-19T13:31:08;100419.18;;;15.74;61.72
36254;BME280;22291;52.250;21.228;2023-04-19T13:33:35;100416.02;;;15.78;61.62
36254;BME280;22291;52.250;21.228;2023-04-19T13:36:02;100418.74;;;15.78;60.67
36254;BME280;22291;52.250;21.228;2023-04-19T13:38:28;100411.45;;;15.63;60.02
36254;BME280;22291;52.250;21.228;2023-04-19T13:40:59;100419.61;;;15.57;59.80
36254;BME280;22291;52.250;21.228;2023-04-19T13:43:31;100416.53;;;15.53;59.92
36254;BME280;22291;52.250;21.228;2023-04-19T13:46:06;100415.39;;;15.47;59.97
36254;BME280;22291;52.250;21.228;2023-04-19T13:48:37;100419.16;;;15.55;60.84
36254;BME280;22291;52.250;21.228;2023-04-19T13:51:05;100415.77;;;15.71;60.19
36254;BME280;22291;52.250;21.228;2023-04-19T13:53:32;100418.30;;;15.76;60.25
36254;BME280;22291;52.250;21.228;2023-04-19T13:55:59;100415.22;;;15.90;60.37
36254;BME280;22291;52.250;21.228;2023-04-19T13:58:25;100415.45;;;16.09;60.02
36254;BME280;22291;52.250;21.228;2023-04-19T14:00:52;100416.31;;;16.25;60.22
36254;BME280;22291;52.250;21.228;2023-04-19T14:03:21;100413.19;;;16.52;59.89
36254;BME280;22291;52.250;21.228;2023-04-19T14:05:47;100414.06;;;16.62;58.49
36254;BME280;22291;52.250;21.228;2023-04-19T14:08:14;100415.43;;;16.62;58.12
36254;BME280;22291;52.250;21.228;2023-04-19T14:10:41;100412.30;;;16.76;58.80
36254;BME280;22291;52.250;21.228;2023-04-19T14:13:08;100407.25;;;17.12;58.96
36254;BME280;22291;52.250;21.228;2023-04-19T14:15:34;100397.89;;;17.35;58.28
36254;BME280;22291;52.250;21.228;2023-04-19T14:18:01;100397.53;;;17.53;57.70
36254;BME280;22291;52.250;21.228;2023-04-19T14:20:28;100397.70;;;17.60;57.18
36254;BME280;22291;52.250;21.228;2023-04-19T14:22:54;100394.08;;;17.72;56.69
36254;BME280;22291;52.250;21.228;2023-04-19T14:25:22;100387.70;;;17.84;56.40
36254;BME280;22291;52.250;21.228;2023-04-19T14:27:48;100393.52;;;17.88;56.12
36254;BME280;22291;52.250;21.228;2023-04-19T14:30:15;100388.98;;;17.86;55.57
36254;BME280;22291;52.250;21.228;2023-04-19T14:32:41;100395.75;;;17.92;55.66
36254;BME280;22291;52.250;21.228;2023-04-19T14:35:08;100391.44;;;18.01;55.44
36254;BME280;22291;52.250;21.228;2023-04-19T14:37:37;100391.44;;;18.01;54.58
36254;BME280;22291;52.250;21.228;2023-04-19T14:40:05;100388.91;;;17.92;54.40
36254;BME280;22291;52.250;21.228;2023-04-19T14:42:33;100403.37;;;17.77;54.16
36254;BME280;22291;52.250;21.228;2023-04-19T14:44:59;100390.78;;;17.57;54.30
36254;BME280;22291;52.250;21.228;2023-04-19T14:47:25;100391.27;;;17.36;54.41
36254;BME280;22291;52.250;21.228;2023-04-19T14:49:51;100401.32;;;17.16;54.81
36254;BME280;22291;52.250;21.228;2023-04-19T14:52:19;100403.45;;;17.01;55.05
36254;BME280;22291;52.250;21.228;2023-04-19T14:54:46;100415.00;;;16.88;55.55
36254;BME280;22291;52.250;21.228;2023-04-19T14:57:13;100442.69;;;16.74;55.44
36254;BME280;22291;52.250;21.228;2023-04-19T14:59:39;100441.77;;;16.42;54.08
36254;BME280;22291;52.250;21.228;2023-04-19T15:02:06;100452.28;;;15.78;54.41
36254;BME280;22291;52.250;21.228;2023-04-19T15:04:36;100470.07;;;15.18;55.65
36254;BME280;22291;52.250;21.228;2023-04-19T15:07:03;100462.67;;;14.64;57.21
36254;BME280;22291;52.250;21.228;2023-04-19T15:09:29;100461.92;;;14.18;58.72
36254;BME280;22291;52.250;21.228;2023-04-19T15:11:55;100464.94;;;13.87;59.92
36254;BME280;22291;52.250;21.228;2023-04-19T15:14:23;100465.41;;;13.51;60.66
36254;BME280;22291;52.250;21.228;2023-04-19T15:16:49;100457.13;;;13.21;61.80
36254;BME280;22291;52.250;21.228;2023-04-19T15:19:15;100460.35;;;12.97;63.05
36254;BME280;22291;52.250;21.228;2023-04-19T15:21:42;100445.66;;;12.80;62.99
36254;BME280;22291;52.250;21.228;2023-04-19T15:24:08;100440.17;;;12.65;64.70
36254;BME280;22291;52.250;21.228;2023-04-19T15:26:34;100445.92;;;12.55;65.76
36254;BME280;22291;52.250;21.228;2023-04-19T15:29:01;100450.05;;;12.44;65.91
36254;BME280;22291;52.250;21.228;2023-04-19T15:31:27;100453.54;;;12.36;67.59
36254;BME280;22291;52.250;21.228;2023-04-19T15:33:53;100460.87;;;12.26;68.50
36254;BME280;22291;52.250;21.228;2023-04-19T15:36:20;100454.39;;;12.16;69.21
36254;BME280;22291;52.250;21.228;2023-04-19T15:38:47;100453.55;;;12.07;69.59
36254;BME280;22291;52.250;21.228;2023-04-19T15:41:13;100453.84;;;11.96;70.10
36254;BME280;22291;52.250;21.228;2023-04-19T15:43:39;100458.31;;;11.92;70.02
36254;BME280;22291;52.250;21.228;2023-04-19T15:46:05;100455.09;;;11.90;70.09
36254;BME280;22291;52.250;21.228;2023-04-19T15:48:33;100458.90;;;11.89;71.30
36254;BME280;22291;52.250;21.228;2023-04-19T15:51:00;100457.06;;;11.87;71.92
36254;BME280;22291;52.250;21.228;2023-04-19T15:53:28;100454.92;;;11.87;72.28
36254;BME280;22291;52.250;21.228;2023-04-19T15:55:54;100457.37;;;11.86;72.66
36254;BME280;22291;52.250;21.228;2023-04-19T15:58:22;100459.91;;;11.82;72.73
36254;BME280;22291;52.250;21.228;2023-04-19T16:00:49;100461.02;;;11.81;72.92
36254;BME280;22291;52.250;21.228;2023-04-19T16:03:17;100464.03;;;11.80;73.18
36254;BME280;22291;52.250;21.228;2023-04-19T16:05:44;100465.78;;;11.75;73.41
36254;BME280;22291;52.250;21.228;2023-04-19T16:08:11;100468.89;;;11.71;73.81
36254;BME280;22291;52.250;21.228;2023-04-19T16:10:40;100474.92;;;11.68;74.03
36254;BME280;22291;52.250;21.228;2023-04-19T16:13:06;100471.48;;;11.65;74.33
36254;BME280;22291;52.250;21.228;2023-04-19T16:15:33;100469.38;;;11.62;74.33
36254;BME280;22291;52.250;21.228;2023-04-19T16:18:00;100473.53;;;11.59;75.03
36254;BME280;22291;52.250;21.228;2023-04-19T16:20:28;100476.55;;;11.58;75.06
36254;BME280;22291;52.250;21.228;2023-04-19T16:22:54;100483.63;;;11.56;75.68
36254;BME280;22291;52.250;21.228;2023-04-19T16:25:24;100486.70;;;11.52;76.01
36254;BME280;22291;52.250;21.228;2023-04-19T16:27:51;100491.63;;;11.50;75.98
36254;BME280;22291;52.250;21.228;2023-04-19T16:30:18;100495.52;;;11.47;75.87
36254;BME280;22291;52.250;21.228;2023-04-19T16:32:45;100494.42;;;11.48;76.18
36254;BME280;22291;52.250;21.228;2023-04-19T16:35:13;100497.44;;;11.46;76.71
36254;BME280;22291;52.250;21.228;2023-04-19T16:37:39;100499.09;;;11.45;77.27
36254;BME280;22291;52.250;21.228;2023-04-19T16:40:08;100499.41;;;11.43;77.32
36254;BME280;22291;52.250;21.228;2023-04-19T16:42:37;100501.63;;;11.41;77.80
36254;BME280;22291;52.250;21.228;2023-04-19T16:45:07;100505.17;;;11.39;77.89
36254;BME280;22291;52.250;21.228;2023-04-19T16:47:35;100505.25;;;11.36;78.06
36254;BME280;22291;52.250;21.228;2023-04-19T16:50:03;100508.01;;;11.34;78.29
36254;BME280;22291;52.250;21.228;2023-04-19T16:52:33;100512.45;;;11.30;78.25
36254;BME280;22291;52.250;21.228;2023-04-19T16:55:00;100510.44;;;11.24;78.37
36254;BME280;22291;52.250;21.228;2023-04-19T16:57:31;100509.99;;;11.19;78.50
36254;BME280;22291;52.250;21.228;2023-04-19T16:59:59;100509.20;;;11.19;78.38
36254;BME280;22291;52.250;21.228;2023-04-19T17:02:26;100515.48;;;11.17;78.83
36254;BME280;22291;52.250;21.228;2023-04-19T17:04:52;100513.69;;;11.12;78.78
36254;BME280;22291;52.250;21.228;2023-04-19T17:07:19;100513.43;;;11.11;79.04
36254;BME280;22291;52.250;21.228;2023-04-19T17:09:45;100526.48;;;11.09;79.49
36254;BME280;22291;52.250;21.228;2023-04-19T17:12:15;100520.09;;;11.05;79.64
36254;BME280;22291;52.250;21.228;2023-04-19T17:14:41;100526.30;;;11.06;79.92
36254;BME280;22291;52.250;21.228;2023-04-19T17:17:08;100530.66;;;11.04;79.66
36254;BME280;22291;52.250;21.228;2023-04-19T17:19:35;100535.02;;;11.02;79.70
36254;BME280;22291;52.250;21.228;2023-04-19T17:22:01;100537.23;;;11.00;79.63
36254;BME280;22291;52.250;21.228;2023-04-19T17:24:32;100538.89;;;10.99;80.11
36254;BME280;22291;52.250;21.228;2023-04-19T17:26:59;100547.31;;;10.97;80.25
36254;BME280;22291;52.250;21.228;2023-04-19T17:29:28;100546.88;;;10.93;80.32
36254;BME280;22291;52.250;21.228;2023-04-19T17:31:56;100543.98;;;10.89;80.19
36254;BME280;22291;52.250;21.228;2023-04-19T17:34:22;100553.75;;;10.88;80.49
36254;BME280;22291;52.250;21.228;2023-04-19T17:36:49;100555.73;;;10.84;80.35
36254;BME280;22291;52.250;21.228;2023-04-19T17:39:16;100559.58;;;10.81;80.38
36254;BME280;22291;52.250;21.228;2023-04-19T17:41:43;100556.98;;;10.76;80.12
36254;BME280;22291;52.250;21.228;2023-04-19T17:44:10;100557.91;;;10.71;80.18
36254;BME280;22291;52.250;21.228;2023-04-19T17:46:38;100563.16;;;10.65;80.22
36254;BME280;22291;52.250;21.228;2023-04-19T17:49:05;100568.68;;;10.60;80.24
36254;BME280;22291;52.250;21.228;2023-04-19T17:51:33;100569.34;;;10.54;80.12
36254;BME280;22291;52.250;21.228;2023-04-19T17:53:59;100570.28;;;10.47;80.13
36254;BME280;22291;52.250;21.228;2023-04-19T17:56:25;100572.59;;;10.40;80.41
36254;BME280;22291;52.250;21.228;2023-04-19T17:58:52;100577.60;;;10.33;80.24
36254;BME280;22291;52.250;21.228;2023-04-19T18:01:21;100578.23;;;10.27;80.32
36254;BME280;22291;52.250;21.228;2023-04-19T18:03:48;100575.66;;;10.19;80.60
36254;BME280;22291;52.250;21.228;2023-04-19T18:06:16;100580.66;;;10.12;80.48
36254;BME280;22291;52.250;21.228;2023-04-19T18:08:45;100582.67;;;10.06;80.42
36254;BME280;22291;52.250;21.228;2023-04-19T18:11:12;100580.64;;;9.98;80.61
36254;BME280;22291;52.250;21.228;2023-04-19T18:13:38;100586.14;;;9.93;80.86
36254;BME280;22291;52.250;21.228;2023-04-19T18:16:04;100584.62;;;9.87;80.96
36254;BME280;22291;52.250;21.228;2023-04-19T18:18:33;100585.77;;;9.83;81.42
36254;BME280;22291;52.250;21.228;2023-04-19T18:21:04;100590.91;;;9.82;81.61
36254;BME280;22291;52.250;21.228;2023-04-19T18:23:32;100590.17;;;9.79;81.71
36254;BME280;22291;52.250;21.228;2023-04-19T18:26:00;100591.31;;;9.76;82.08
36254;BME280;22291;52.250;21.228;2023-04-19T18:28:28;100590.84;;;9.71;81.80
36254;BME280;22291;52.250;21.228;2023-04-19T18:30:55;100591.72;;;9.66;82.05
36254;BME280;22291;52.250;21.228;2023-04-19T18:33:23;100591.51;;;9.63;81.92
36254;BME280;22291;52.250;21.228;2023-04-19T18:35:50;100596.70;;;9.59;81.88
36254;BME280;22291;52.250;21.228;2023-04-19T18:38:19;100591.62;;;9.55;81.91
36254;BME280;22291;52.250;21.228;2023-04-19T18:40:49;100591.67;;;9.52;81.73
36254;BME280;22291;52.250;21.228;2023-04-19T18:43:16;100590.34;;;9.50;81.91
36254;BME280;22291;52.250;21.228;2023-04-19T18:45:43;100590.95;;;9.47;82.06
36254;BME280;22291;52.250;21.228;2023-04-19T18:48:10;100603.11;;;9.47;82.32
36254;BME280;22291;52.250;21.228;2023-04-19T18:50:38;100598.77;;;9.48;82.46
36254;BME280;22291;52.250;21.228;2023-04-19T18:53:05;100600.91;;;9.49;82.45
36254;BME280;22291;52.250;21.228;2023-04-19T18:55:32;100602.27;;;9.49;82.55
36254;BME280;22291;52.250;21.228;2023-04-19T18:57:59;100609.02;;;9.49;82.48
36254;BME280;22291;52.250;21.228;2023-04-19T19:00:26;100603.91;;;9.47;82.36
36254;BME280;22291;52.250;21.228;2023-04-19T19:02:52;100605.25;;;9.47;82.08
36254;BME280;22291;52.250;21.228;2023-04-19T19:05:18;100602.05;;;9.45;81.53
36254;BME280;22291;52.250;21.228;2023-04-19T19:07:45;100602.58;;;9.45;81.17
36254;BME280;22291;52.250;21.228;2023-04-19T19:10:12;100601.84;;;9.42;80.70
36254;BME280;22291;52.250;21.228;2023-04-19T19:12:40;100612.88;;;9.43;80.58
36254;BME280;22291;52.250;21.228;2023-04-19T19:15:09;100612.08;;;9.42;80.37